Progress Software EBITDA Margin 2010-2024 | PRGS

Current and historical EBITDA (Earnings Before Interest, Taxes, Depreciation and Amortization) margin for Progress Software (PRGS) over the last 10 years. The current EBITDA margin for Progress Software as of February 29, 2024 is .
Progress Software EBITDA Margin Historical Data
Date TTM Revenue TTM EBITDA EBITDA Margin
2024-02-29 $0.72B $0.22B 30.77%
2023-11-30 $0.69B $0.22B 30.98%
2023-08-31 $0.67B $0.21B 31.75%
2023-05-31 $0.65B $0.21B 32.00%
2023-02-28 $0.62B $0.22B 35.10%
2022-11-30 $0.60B $0.21B 34.72%
2022-08-31 $0.59B $0.20B 33.85%
2022-05-31 $0.58B $0.21B 35.97%
2022-02-28 $0.55B $0.19B 33.57%
2021-11-30 $0.53B $0.18B 33.21%
2021-08-31 $0.51B $0.17B 33.01%
2021-05-31 $0.48B $0.15B 31.16%
2021-02-28 $0.45B $0.14B 31.79%
2020-11-30 $0.44B $0.14B 32.35%
2020-08-31 $0.44B $0.15B 33.64%
2020-05-31 $0.43B $0.14B 32.03%
2020-02-29 $0.43B $0.13B 30.88%
2019-11-30 $0.41B $0.12B 29.47%
2019-08-31 $0.40B $0.11B 27.59%
2019-05-31 $0.38B $0.11B 27.82%
2019-02-28 $0.37B $0.11B 28.88%
2018-11-30 $0.38B $0.11B 29.55%
2018-08-31 $0.39B $0.12B 30.08%
2018-05-31 $0.39B $0.12B 30.28%
2018-02-28 $0.39B $0.12B 30.53%
2017-11-30 $0.39B $0.10B 25.96%
2017-08-31 $0.40B $0.12B 29.57%
2017-05-31 $0.40B $0.11B 26.98%
2017-02-28 $0.41B $0.10B 24.57%
2016-11-30 $0.41B $0.11B 26.17%
2016-08-31 $0.40B $0.10B 24.25%
2016-05-31 $0.39B $0.09B 23.66%
2016-02-29 $0.39B $0.08B 20.47%
2015-11-30 $0.38B $0.06B 16.40%
2015-08-31 $0.36B $0.06B 15.98%
2015-05-31 $0.35B $0.06B 17.87%
2015-02-28 $0.34B $0.08B 23.01%
2014-11-30 $0.33B $0.10B 28.53%
2014-08-31 $0.33B $0.09B 27.91%
2014-05-31 $0.33B $0.08B 25.23%
2014-02-28 $0.33B $0.08B 23.31%
2013-11-30 $0.34B $0.08B 23.28%
2013-08-31 $0.33B $0.08B 24.85%
2013-05-31 $0.32B $0.09B 27.02%
2013-02-28 $0.31B $0.09B 28.66%
2012-11-30 $0.32B $0.10B 31.23%
2012-08-31 $0.33B $0.11B 32.83%
2012-05-31 $0.38B $0.11B 28.95%
2012-02-29 $0.44B $0.12B 28.12%
2011-11-30 $0.49B $0.13B 27.25%
2011-08-31 $0.54B $0.14B 25.42%
2011-05-31 $0.54B $0.14B 26.15%
2011-02-28 $0.54B $0.14B 26.12%
2010-11-30 $0.53B $0.11B 20.57%
2010-08-31 $0.52B $0.10B 19.54%
2010-05-31 $0.51B $0.10B 18.55%
2010-02-28 $0.50B $0.08B 16.77%
2009-11-30 $0.49B $0.09B 18.62%
Sector Industry Market Cap Revenue
Computer and Technology Computer Software $2.174B $0.694B
Progress offers the leading platform for developing and deploying mission-critical business applications. Progress empowers enterprises and ISVs to build and deliver cognitive-first applications that harness big data to derive business insights and competitive advantage. Progress offers leading technologies for easily building powerful user interfaces across any type of device, a reliable, scalable and secure backend platform to deploy modern applications, leading data connectivity to all sources, and award-winning predictive analytics that brings the power of machine learning to any organization.
Stock Name Country Market Cap PE Ratio
Microsoft (MSFT) United States $3197.081B 37.24
Oracle (ORCL) United States $337.818B 27.50
Salesforce (CRM) United States $263.577B 44.06
Adobe (ADBE) United States $212.993B 35.61
Intuit (INTU) United States $169.682B 52.87
Synopsys (SNPS) United States $89.579B 62.03
Cadence Design Systems (CDNS) United States $80.084B 76.24
Dassault Systemes SA (DASTY) France $56.134B 36.47
Autodesk (ADSK) United States $46.304B 45.24
MicroStrategy (MSTR) United States $29.885B 0.00
ANSYS (ANSS) United States $28.906B 53.49
PTC (PTC) United States $21.905B 58.10
SS&C Technologies Holdings (SSNC) United States $15.290B 14.48
Manhattan Associates (MANH) United States $14.046B 74.55
Descartes Systems Group (DSGX) Canada $8.546B 74.80
Open Text (OTEX) Canada $8.205B 8.26
Trend Micro (TMICY) Japan $6.572B 47.60
Pegasystems (PEGA) United States $5.096B 45.06
CommVault Systems (CVLT) United States $4.800B 78.44
Blackbaud (BLKB) United States $4.095B 35.25
ACI Worldwide (ACIW) United States $3.735B 17.89
Verint Systems (VRNT) United States $1.911B 17.81
Sapiens (SPNS) Israel $1.880B 25.64
BlackBerry (BB) Canada $1.700B 0.00
PROS Holdings (PRO) United States $1.465B 0.00
Simulations Plus (SLP) United States $0.996B 73.28
Rand Worldwide (RWWI) United States $0.652B 0.00
Magic Software Enterprises (MGIC) Israel $0.522B 11.08
American Software (AMSWA) United States $0.355B 29.72
Canaan (CAN) China $0.245B 0.00
OptimizeRx (OPRX) United States $0.236B 0.00
Rigetti Computing (RGTI) United States $0.184B 0.00
Icad Inc (ICAD) United States $0.042B 0.00
Neonode (NEON) Sweden $0.037B 0.00
NetSol Technologies (NTWK) United States $0.030B 0.00
Smith Micro Software (SMSI) United States $0.024B 0.00
Hanryu Holdings (HRYU) South Korea $0.021B 0.00
Wetouch Technology (WETH) $0.020B 0.00
GSE Systems (GVP) United States $0.011B 0.00
SAP SE (SAP) Germany $0.000B 49.97